Sainte-Marguerite, Canada
Current Conditions -  °F | °C
As of 9:00 PM on Saturday 25 Oct 2014 (Local Time) from CYMX Reporting Station
Rain Showers Rain Showers  
Wind Chill: 52°   Ceiling: 700
Heat Index: 52°   Visibility: 3mi
Dew Point: 50°   Wind: 6mph
Humidity: 94%   Direction: 230°SW
Pressure: 29.43"   Gusts: NA
Location:  46.03°N, 74.07°W
Report Text: CYMX 260100Z 23005KT 200V270 3SM -SHRA BR BKN007 BKN053 OVC220 11/10 A2943 RMK FG2SF4SC1CI1 SLP968 DENSITY ALT 300FT
Loading
Personal Weather Stations






























Interactive Weather Map
Tropical Storm Tracking
New forecast layout! Learn more

10-Day Weather Forecast

Advertisements
Track Severe Weather on mobile